Time;durP1;ratioP1;P1;durP2;ratioP2;P2;SDS_P1;SDS_P2;PMS_P1;PMS_P2;Temp;Humidity;BMP_temperature;BMP_pressure;BME280_temperature;BME280_humidity;BME280_pressure;Samples;Min_cycle;Max_cycle;Signal;HPM_P1;HPM_P2
2022/08/31 00:06:21;;;;;;;9.75;6.70;;;16.60;99.90;;;;;;5053860;28;20052;-71
2022/08/31 00:08:47;;;;;;;8.90;6.55;;;16.70;99.90;;;;;;5053188;28;20055;-70
2022/08/31 00:11:13;;;;;;;8.15;6.32;;;16.80;99.90;;;;;;5052970;28;20033;-71
2022/08/31 00:13:40;;;;;;;8.57;6.05;;;16.80;99.90;;;;;;5053059;28;20043;-71
2022/08/31 00:16:07;;;;;;;7.25;5.80;;;16.80;99.90;;;;;;5053541;28;20028;-71
2022/08/31 00:18:33;;;;;;;9.45;6.65;;;16.80;99.90;;;;;;5053033;28;20439;-71
2022/08/31 00:20:59;;;;;;;10.13;6.97;;;16.80;99.90;;;;;;5053185;28;20029;-71
2022/08/31 00:23:24;;;;;;;11.07;6.93;;;16.80;99.90;;;;;;5053419;28;20389;-71
2022/08/31 00:25:50;;;;;;;8.15;6.75;;;16.70;99.90;;;;;;5051998;28;20025;-71
2022/08/31 00:28:17;;;;;;;7.13;6.22;;;16.80;99.90;;;;;;5053025;28;20401;-71
2022/08/31 00:30:44;;;;;;;8.30;6.30;;;16.70;99.90;;;;;;5053099;28;20025;-71
2022/08/31 00:33:10;;;;;;;7.40;5.78;;;16.60;99.90;;;;;;5055490;28;20397;-71
2022/08/31 00:35:37;;;;;;;8.10;6.50;;;16.60;99.90;;;;;;5057311;28;20036;-71
2022/08/31 00:38:04;;;;;;;7.38;5.45;;;16.60;99.90;;;;;;5057090;28;20036;-71
2022/08/31 00:40:31;;;;;;;8.10;6.72;;;16.60;99.90;;;;;;5057170;28;20462;-71
2022/08/31 00:42:58;;;;;;;7.82;6.10;;;16.70;99.90;;;;;;5056883;28;20366;-71
2022/08/31 00:45:24;;;;;;;6.78;5.70;;;16.70;99.90;;;;;;5057425;28;20033;-71
2022/08/31 00:47:50;;;;;;;7.32;5.53;;;16.70;99.90;;;;;;5056688;28;20039;-71
2022/08/31 00:50:17;;;;;;;7.53;5.72;;;16.80;99.90;;;;;;5056814;28;20035;-71
2022/08/31 00:52:47;;;;;;;9.90;6.63;;;16.80;99.90;;;;;;5056561;28;20025;-71
2022/08/31 00:55:20;;;;;;;7.72;5.80;;;16.80;99.90;;;;;;5055362;28;20025;-71
2022/08/31 00:57:50;;;;;;;8.48;5.93;;;16.90;99.90;;;;;;5056761;28;20086;-71
2022/08/31 01:00:19;;;;;;;9.40;6.47;;;16.90;99.90;;;;;;5057205;28;20056;-71
2022/08/31 01:02:46;;;;;;;9.05;6.90;;;16.80;99.90;;;;;;5056599;28;20021;-72
2022/08/31 01:05:12;;;;;;;10.38;6.28;;;16.80;99.90;;;;;;5056562;28;20086;-72
2022/08/31 01:07:39;;;;;;;9.27;6.90;;;16.80;99.90;;;;;;5056253;28;20021;-72
2022/08/31 01:10:07;;;;;;;8.02;6.68;;;16.70;99.90;;;;;;5056431;28;20057;-72
2022/08/31 01:12:33;;;;;;;7.57;6.30;;;16.60;99.90;;;;;;5056302;28;20021;-72
2022/08/31 01:15:00;;;;;;;7.60;6.45;;;16.60;99.90;;;;;;5056249;28;20055;-72
2022/08/31 01:17:26;;;;;;;9.93;7.05;;;16.50;99.90;;;;;;5056194;28;20025;-72
2022/08/31 01:20:00;;;;;;;8.82;7.13;;;16.50;99.90;;;;;;5056138;28;20032;-72
2022/08/31 01:22:58;;;;;;;16.23;7.20;;;16.40;99.90;;;;;;5056732;28;20377;-72
2022/08/31 01:25:24;;;;;;;8.32;6.97;;;16.40;99.90;;;;;;5055932;28;20028;-72
2022/08/31 01:27:51;;;;;;;9.65;7.38;;;16.40;99.90;;;;;;5056305;28;20029;-72
2022/08/31 01:30:24;;;;;;;9.07;6.95;;;16.30;99.90;;;;;;5056011;28;20028;-72
2022/08/31 01:32:49;;;;;;;9.73;6.60;;;16.30;99.90;;;;;;5056259;28;20041;-72
2022/08/31 01:35:15;;;;;;;9.77;6.80;;;16.30;99.90;;;;;;5056172;28;20086;-72
2022/08/31 01:37:41;;;;;;;8.18;6.68;;;16.40;99.90;;;;;;5055746;28;20031;-72
2022/08/31 01:40:09;;;;;;;10.38;7.28;;;16.40;99.90;;;;;;5055366;28;20452;-72
2022/08/31 01:42:35;;;;;;;8.15;6.57;;;16.30;99.90;;;;;;5056087;28;20029;-72
2022/08/31 01:45:03;;;;;;;10.57;7.25;;;16.40;99.90;;;;;;5055632;28;20366;-72
2022/08/31 01:47:29;;;;;;;8.60;6.65;;;16.40;99.90;;;;;;5055672;28;20105;-72
2022/08/31 01:49:54;;;;;;;8.93;7.15;;;16.40;99.90;;;;;;5055987;28;20049;-71
2022/08/31 01:52:20;;;;;;;10.82;7.18;;;16.40;99.90;;;;;;5055628;28;20035;-72
2022/08/31 01:54:46;;;;;;;8.73;7.22;;;16.50;99.90;;;;;;5055287;28;20029;-71
2022/08/31 01:57:14;;;;;;;9.75;6.93;;;16.50;99.90;;;;;;5055471;28;20029;-72
2022/08/31 01:59:40;;;;;;;8.23;6.47;;;16.50;99.90;;;;;;5054127;28;20036;-72
2022/08/31 02:02:06;;;;;;;8.20;6.78;;;16.50;99.90;;;;;;5055727;28;20025;-73
2022/08/31 02:04:32;;;;;;;11.00;7.07;;;16.50;99.90;;;;;;5055413;28;20048;-73
2022/08/31 02:06:59;;;;;;;8.15;6.88;;;16.50;99.90;;;;;;5055283;28;20024;-73
2022/08/31 02:09:25;;;;;;;12.23;8.40;;;16.50;99.90;;;;;;5055158;28;20040;-72
2022/08/31 02:11:51;;;;;;;12.52;9.45;;;16.50;99.90;;;;;;5055243;28;20029;-73
2022/08/31 02:14:18;;;;;;;11.48;8.77;;;16.60;99.90;;;;;;5055106;28;20037;-72
2022/08/31 02:16:44;;;;;;;11.38;8.02;;;16.60;99.90;;;;;;5055099;28;20103;-73
2022/08/31 02:19:09;;;;;;;12.48;8.55;;;16.60;99.90;;;;;;5055535;28;20051;-73
2022/08/31 02:21:36;;;;;;;9.57;7.50;;;16.60;99.90;;;;;;5055369;28;20021;-73
2022/08/31 02:24:02;;;;;;;10.25;6.90;;;16.60;99.90;;;;;;5054996;28;20029;-72
2022/08/31 02:26:28;;;;;;;9.57;6.93;;;16.60;99.90;;;;;;5055135;28;20029;-72
2022/08/31 02:28:53;;;;;;;10.57;7.57;;;16.70;99.90;;;;;;5070357;28;20448;-72
2022/08/31 02:31:19;;;;;;;7.88;6.43;;;16.70;99.90;;;;;;5054910;28;20033;-72
2022/08/31 02:33:45;;;;;;;8.27;6.20;;;16.70;99.90;;;;;;5055389;28;20078;-72
2022/08/31 02:36:11;;;;;;;7.32;6.07;;;16.70;99.90;;;;;;5055071;28;20033;-72
2022/08/31 02:38:37;;;;;;;8.23;6.68;;;16.70;99.90;;;;;;5054659;28;20082;-72
2022/08/31 02:41:04;;;;;;;10.50;7.63;;;16.60;99.90;;;;;;5054425;28;20110;-72
2022/08/31 02:43:31;;;;;;;9.05;7.18;;;16.60;99.90;;;;;;5070331;28;20473;-72
2022/08/31 02:45:57;;;;;;;8.68;6.68;;;16.50;99.90;;;;;;5054645;28;20024;-72
2022/08/31 02:48:22;;;;;;;7.95;6.47;;;16.50;99.90;;;;;;5053795;28;20029;-72
2022/08/31 02:50:50;;;;;;;10.07;7.10;;;16.50;99.90;;;;;;5054512;28;20113;-72
2022/08/31 02:53:18;;;;;;;8.88;7.07;;;16.50;99.90;;;;;;5054506;28;20158;-72
2022/08/31 02:55:44;;;;;;;11.68;7.55;;;16.50;99.90;;;;;;5053322;28;20025;-72
2022/08/31 02:58:11;;;;;;;9.60;7.25;;;16.60;99.90;;;;;;5054251;28;20035;-73
2022/08/31 03:00:38;;;;;;;7.85;6.68;;;16.50;99.90;;;;;;5054892;28;20025;-73
2022/08/31 03:03:05;;;;;;;8.40;5.95;;;16.60;99.90;;;;;;5054852;28;20025;-72
2022/08/31 03:05:30;;;;;;;7.88;6.40;;;16.50;99.90;;;;;;5054561;28;20437;-72
2022/08/31 03:07:56;;;;;;;7.93;6.22;;;16.50;99.90;;;;;;5054139;28;20025;-72
2022/08/31 03:10:23;;;;;;;8.57;6.97;;;16.50;99.90;;;;;;5054483;28;20085;-72
2022/08/31 03:12:50;;;;;;;8.73;6.43;;;16.40;99.90;;;;;;5054049;28;20025;-73
2022/08/31 03:15:18;;;;;;;7.82;6.13;;;16.30;99.90;;;;;;5053953;28;20033;-73
2022/08/31 03:17:43;;;;;;;8.77;7.00;;;16.30;99.90;;;;;;5053900;28;20469;-73
2022/08/31 03:20:10;;;;;;;7.30;6.03;;;16.30;99.90;;;;;;5053976;28;20040;-73
2022/08/31 03:22:36;;;;;;;9.05;6.50;;;16.30;99.90;;;;;;5053978;28;20021;-72
2022/08/31 03:25:03;;;;;;;7.78;6.47;;;16.40;99.90;;;;;;5053682;28;20033;-72
2022/08/31 03:27:29;;;;;;;8.30;6.72;;;16.40;99.90;;;;;;5053753;28;20436;-73
2022/08/31 03:29:55;;;;;;;10.27;6.90;;;16.40;99.90;;;;;;5053820;28;20033;-73
2022/08/31 03:32:21;;;;;;;8.15;6.53;;;16.50;99.90;;;;;;5053760;28;20029;-73
2022/08/31 03:34:47;;;;;;;7.95;6.40;;;16.50;99.90;;;;;;5054011;28;20033;-73
2022/08/31 03:37:13;;;;;;;8.00;6.20;;;16.50;99.90;;;;;;5052155;28;20029;-72
2022/08/31 03:39:38;;;;;;;7.80;6.00;;;16.50;99.90;;;;;;5053755;28;20465;-73
2022/08/31 03:42:07;;;;;;;7.82;6.10;;;16.50;99.90;;;;;;5054191;28;20420;-73
2022/08/31 03:44:33;;;;;;;9.02;6.25;;;16.50;99.90;;;;;;5053624;28;20475;-73
2022/08/31 03:46:59;;;;;;;7.68;6.30;;;16.50;99.90;;;;;;5053742;28;20039;-72
2022/08/31 03:49:25;;;;;;;8.05;6.95;;;16.50;99.90;;;;;;5053559;28;20032;-73
2022/08/31 03:51:51;;;;;;;9.40;6.65;;;16.50;99.90;;;;;;5053498;28;20040;-72
2022/08/31 03:54:18;;;;;;;8.55;6.75;;;16.50;99.90;;;;;;5053424;28;20043;-72
2022/08/31 03:56:45;;;;;;;9.73;6.30;;;16.50;99.90;;;;;;5053405;28;20036;-73
2022/08/31 03:59:11;;;;;;;8.38;6.82;;;16.50;99.90;;;;;;5053574;28;20075;-73
2022/08/31 04:01:37;;;;;;;8.68;7.25;;;16.50;99.90;;;;;;5053624;28;20025;-73
2022/08/31 04:04:03;;;;;;;9.02;6.68;;;16.50;99.90;;;;;;5053601;28;20089;-73
2022/08/31 04:06:29;;;;;;;9.38;6.63;;;16.40;99.90;;;;;;5053052;28;20021;-72
2022/08/31 04:08:55;;;;;;;8.45;6.60;;;16.40;99.90;;;;;;5051945;28;20033;-72
2022/08/31 04:11:22;;;;;;;8.77;7.00;;;16.30;99.90;;;;;;5053236;28;20025;-72
2022/08/31 04:13:48;;;;;;;10.73;7.65;;;16.30;99.90;;;;;;5053084;28;20411;-73
2022/08/31 04:16:17;;;;;;;8.68;6.95;;;16.20;99.90;;;;;;5049624;28;20029;-72
2022/08/31 04:18:45;;;;;;;7.70;6.38;;;16.20;99.90;;;;;;5053043;28;20032;-72
2022/08/31 04:21:13;;;;;;;8.45;7.13;;;16.10;99.90;;;;;;5053288;28;20021;-72
2022/08/31 04:23:39;;;;;;;14.27;7.35;;;16.00;99.90;;;;;;5052343;28;20039;-72
2022/08/31 04:26:09;;;;;;;9.00;6.55;;;16.00;99.90;;;;;;5051570;28;20055;-72
2022/08/31 04:28:35;;;;;;;10.15;6.97;;;16.00;99.90;;;;;;5068025;28;20150;-72
2022/08/31 04:31:07;;;;;;;9.32;7.28;;;16.00;99.90;;;;;;5053121;28;20041;-72
2022/08/31 04:33:37;;;;;;;11.32;7.72;;;16.10;99.90;;;;;;5053580;28;20025;-72
2022/08/31 04:36:12;;;;;;;11.80;7.95;;;16.10;99.90;;;;;;5053095;28;20448;-73
2022/08/31 04:38:41;;;;;;;13.05;8.65;;;16.10;99.90;;;;;;5052777;28;20159;-72
2022/08/31 04:41:08;;;;;;;11.55;8.90;;;16.10;99.90;;;;;;5051680;28;20029;-73
2022/08/31 04:43:36;;;;;;;11.57;8.63;;;16.10;99.90;;;;;;5052145;28;20091;-72
2022/08/31 04:46:04;;;;;;;13.50;9.15;;;16.10;99.90;;;;;;5033043;28;20103;-72
2022/08/31 04:48:30;;;;;;;13.40;8.70;;;16.10;99.90;;;;;;5044921;28;20021;-74
2022/08/31 04:51:04;;;;;;;13.68;9.75;;;16.20;99.90;;;;;;5052886;28;20048;-73
2022/08/31 04:53:30;;;;;;;9.70;8.50;;;16.20;99.90;;;;;;5051392;28;20037;-72
2022/08/31 04:55:55;;;;;;;13.23;9.80;;;16.20;99.90;;;;;;5053117;28;20029;-73
2022/08/31 04:58:22;;;;;;;11.65;8.55;;;16.20;99.90;;;;;;5052669;28;20030;-73
2022/08/31 05:00:49;;;;;;;12.38;8.95;;;16.20;99.90;;;;;;5052876;28;20017;-73
2022/08/31 05:03:16;;;;;;;12.35;9.38;;;16.20;99.90;;;;;;5051688;28;20028;-72
2022/08/31 05:05:45;;;;;;;10.77;8.77;;;16.20;99.90;;;;;;5052519;28;20079;-71
2022/08/31 05:08:11;;;;;;;11.75;9.23;;;16.20;99.90;;;;;;5052701;28;20025;-71
2022/08/31 05:10:39;;;;;;;11.27;8.45;;;16.10;99.90;;;;;;5053049;28;20033;-70
2022/08/31 05:13:05;;;;;;;13.38;8.68;;;16.00;99.90;;;;;;5052207;28;20028;-70
2022/08/31 05:15:32;;;;;;;13.30;8.65;;;16.00;99.90;;;;;;5052285;28;20497;-70
2022/08/31 05:17:59;;;;;;;13.07;9.60;;;15.90;99.90;;;;;;5052484;28;20053;-70
2022/08/31 05:20:25;;;;;;;11.35;8.68;;;15.90;99.90;;;;;;5055274;28;20025;-70
2022/08/31 05:22:51;;;;;;;12.57;10.40;;;15.80;99.90;;;;;;5056022;28;20027;-70
2022/08/31 05:25:16;;;;;;;11.70;9.05;;;15.80;99.90;;;;;;5056240;28;20025;-70
2022/08/31 05:27:42;;;;;;;11.65;8.75;;;15.70;99.90;;;;;;5055503;28;20026;-70
2022/08/31 05:30:08;;;;;;;12.55;8.38;;;15.70;99.90;;;;;;5056435;28;20032;-70
2022/08/31 05:32:34;;;;;;;12.35;8.60;;;15.70;99.90;;;;;;5056359;28;20033;-70
2022/08/31 05:35:00;;;;;;;13.75;8.55;;;15.70;99.90;;;;;;5056174;28;20029;-70
2022/08/31 05:37:26;;;;;;;10.95;8.88;;;15.80;99.90;;;;;;5055992;28;20025;-70
2022/08/31 05:39:51;;;;;;;11.13;8.52;;;15.90;99.90;;;;;;5055839;28;20029;-70
2022/08/31 05:42:19;;;;;;;12.90;8.52;;;15.80;99.90;;;;;;5055399;28;20405;-70
2022/08/31 05:44:45;;;;;;;11.82;9.05;;;15.90;99.90;;;;;;5054631;28;20021;-70
2022/08/31 05:47:12;;;;;;;11.65;9.07;;;15.90;99.90;;;;;;5071725;28;20378;-70
2022/08/31 05:49:42;;;;;;;12.93;9.15;;;16.00;99.90;;;;;;5055419;28;20170;-70
2022/08/31 05:52:08;;;;;;;14.30;8.75;;;16.00;99.90;;;;;;5055473;28;20029;-70
2022/08/31 05:54:35;;;;;;;11.02;8.48;;;15.90;99.90;;;;;;5054475;28;20059;-70
2022/08/31 05:57:01;;;;;;;11.18;8.50;;;15.90;99.90;;;;;;5055586;28;20114;-70
2022/08/31 05:59:28;;;;;;;12.45;9.15;;;15.90;99.90;;;;;;5055203;28;20492;-69
2022/08/31 06:01:54;;;;;;;11.38;9.07;;;15.80;99.90;;;;;;5055489;28;20500;-70
2022/08/31 06:04:20;;;;;;;12.93;9.65;;;15.80;99.90;;;;;;5055383;28;20041;-70
2022/08/31 06:06:45;;;;;;;12.80;9.52;;;15.80;99.90;;;;;;5053911;28;20025;-70
2022/08/31 06:09:11;;;;;;;12.13;8.77;;;15.80;99.90;;;;;;5055358;28;20029;-70
2022/08/31 06:11:38;;;;;;;11.90;8.98;;;15.80;99.90;;;;;;5055310;28;20033;-70
2022/08/31 06:14:04;;;;;;;11.65;8.45;;;15.80;99.90;;;;;;5053653;28;20024;-70
2022/08/31 06:16:31;;;;;;;11.35;8.40;;;15.90;99.90;;;;;;5055285;28;20104;-69
2022/08/31 06:19:02;;;;;;;15.00;8.88;;;15.90;99.90;;;;;;5045278;28;20028;-69
2022/08/31 06:21:30;;;;;;;10.68;8.30;;;15.90;99.90;;;;;;5053954;28;20021;-69
2022/08/31 06:23:58;;;;;;;11.40;8.32;;;16.00;99.90;;;;;;5053654;28;20025;-69
2022/08/31 06:26:27;;;;;;;11.98;8.15;;;16.00;99.90;;;;;;5054480;28;20115;-69
2022/08/31 06:28:54;;;;;;;10.20;8.07;;;16.10;99.90;;;;;;5054906;28;20021;-69
2022/08/31 06:31:30;;;;;;;16.65;7.95;;;16.10;99.90;;;;;;5054959;28;20029;-69
2022/08/31 06:33:56;;;;;;;9.45;8.05;;;16.20;99.90;;;;;;5054775;28;20118;-69
2022/08/31 06:36:24;;;;;;;9.25;7.72;;;16.20;99.90;;;;;;5054859;28;20575;-69
2022/08/31 06:38:50;;;;;;;17.65;11.55;;;16.30;99.90;;;;;;5054558;28;20479;-69
2022/08/31 06:41:22;;;;;;;13.20;9.82;;;16.30;99.90;;;;;;5054764;28;20028;-69
2022/08/31 06:43:48;;;;;;;12.63;9.82;;;16.30;99.90;;;;;;5054768;28;20028;-69
2022/08/31 06:46:16;;;;;;;11.43;8.77;;;16.30;99.90;;;;;;5054975;28;20441;-69
2022/08/31 06:48:42;;;;;;;11.70;8.90;;;16.30;99.90;;;;;;5069729;28;20484;-68
2022/08/31 06:51:09;;;;;;;9.20;7.38;;;16.30;99.90;;;;;;5053946;28;20033;-68
2022/08/31 06:53:39;;;;;;;13.52;8.35;;;16.30;99.90;;;;;;5052720;28;20052;-69
2022/08/31 06:56:12;;;;;;;10.60;7.95;;;16.30;99.90;;;;;;5069215;28;20035;-68
2022/08/31 06:58:38;;;;;;;10.82;8.88;;;16.30;99.90;;;;;;5050968;28;20035;-69
2022/08/31 07:01:10;;;;;;;12.77;8.93;;;16.30;99.90;;;;;;5054772;28;20025;-70
2022/08/31 07:03:37;;;;;;;11.25;8.55;;;16.30;99.90;;;;;;5054484;28;20535;-70
2022/08/31 07:06:09;;;;;;;11.63;8.95;;;16.40;99.90;;;;;;5054762;28;20469;-70
2022/08/31 07:08:36;;;;;;;11.23;7.45;;;16.40;99.90;;;;;;5054492;28;20029;-70
2022/08/31 07:11:02;;;;;;;9.95;7.25;;;16.40;99.90;;;;;;5053780;28;20033;-70
2022/08/31 07:13:28;;;;;;;9.73;7.00;;;16.40;99.90;;;;;;5050057;28;20025;-69
2022/08/31 07:16:05;;;;;;;9.65;7.53;;;16.50;99.90;;;;;;5043432;28;20083;-68
2022/08/31 07:18:33;;;;;;;11.45;7.07;;;16.50;99.90;;;;;;5053575;28;20056;-70
2022/08/31 07:21:16;;;;;;;9.23;6.93;;;16.50;99.90;;;;;;5053842;28;20032;-69
2022/08/31 07:23:43;;;;;;;10.55;6.85;;;16.50;99.90;;;;;;5051754;28;20469;-69
2022/08/31 07:26:26;;;;;;;10.07;7.18;;;16.60;99.90;;;;;;5052333;28;20032;-70
2022/08/31 07:28:54;;;;;;;9.15;7.40;;;16.60;99.90;;;;;;5047935;28;20033;-69
2022/08/31 07:31:23;;;;;;;9.05;6.82;;;16.70;99.90;;;;;;5051335;28;20033;-69
2022/08/31 07:33:52;;;;;;;10.73;7.65;;;16.70;99.90;;;;;;5048782;28;20775;-69
2022/08/31 07:36:18;;;;;;;10.98;9.10;;;16.70;99.90;;;;;;5053252;28;20078;-70
2022/08/31 07:44:15;;;;;;;12.25;8.15;;;16.70;99.90;;;;;;5053724;28;20032;-69
2022/08/31 07:46:40;;;;;;;10.68;7.82;;;16.70;99.90;;;;;;5053229;28;20413;-69
2022/08/31 07:49:12;;;;;;;10.57;7.70;;;16.70;99.90;;;;;;5052726;28;20035;-69
2022/08/31 07:51:50;;;;;;;10.00;7.28;;;16.70;99.90;;;;;;5047501;28;20118;-70
2022/08/31 07:54:26;;;;;;;9.00;7.13;;;16.70;99.90;;;;;;5045365;28;20370;-69
2022/08/31 07:57:02;;;;;;;10.55;7.95;;;16.70;99.90;;;;;;5050663;28;20029;-69
2022/08/31 07:59:31;;;;;;;10.20;7.20;;;16.80;99.90;;;;;;5053223;28;20478;-70
2022/08/31 08:02:00;;;;;;;9.88;7.80;;;16.80;99.90;;;;;;5043781;28;20028;-70
2022/08/31 08:04:27;;;;;;;8.95;6.72;;;16.80;99.90;;;;;;5050269;28;20017;-69
2022/08/31 08:06:55;;;;;;;8.95;6.97;;;16.80;99.90;;;;;;5052888;28;20414;-69
2022/08/31 08:09:28;;;;;;;10.02;7.55;;;16.80;99.90;;;;;;5052262;28;20380;-70
2022/08/31 08:12:05;;;;;;;9.35;6.90;;;16.80;99.90;;;;;;5047151;28;20025;-69
2022/08/31 08:14:33;;;;;;;11.73;7.85;;;16.90;99.90;;;;;;5052433;28;20056;-71
2022/08/31 08:16:59;;;;;;;10.63;7.20;;;16.90;99.90;;;;;;5050559;28;20508;-69
2022/08/31 08:19:25;;;;;;;9.57;6.90;;;16.90;99.90;;;;;;5052991;28;20029;-70
2022/08/31 08:21:50;;;;;;;9.90;7.68;;;16.90;99.90;;;;;;5051573;28;20067;-70
2022/08/31 08:24:16;;;;;;;9.52;7.47;;;16.90;99.90;;;;;;5053034;28;20026;-69
2022/08/31 08:26:48;;;;;;;10.43;7.50;;;16.90;99.90;;;;;;5052941;28;20025;-70
2022/08/31 08:29:14;;;;;;;7.97;6.25;;;16.90;99.90;;;;;;5052905;28;20027;-70
2022/08/31 08:31:41;;;;;;;9.32;6.95;;;16.90;99.90;;;;;;5052698;28;20025;-70
2022/08/31 08:34:07;;;;;;;6.88;5.75;;;16.90;99.90;;;;;;5052938;28;20063;-69
2022/08/31 08:36:39;;;;;;;7.95;6.45;;;16.90;99.90;;;;;;5052849;28;20052;-69
2022/08/31 08:39:07;;;;;;;7.50;5.63;;;16.90;99.90;;;;;;5049084;28;20390;-69
2022/08/31 08:41:36;;;;;;;7.28;4.75;;;16.90;99.90;;;;;;5049981;28;20074;-69
2022/08/31 08:44:06;;;;;;;6.38;5.47;;;17.00;99.90;;;;;;5050321;28;20427;-69
2022/08/31 08:46:38;;;;;;;6.97;4.90;;;17.00;99.90;;;;;;5046468;28;20154;-69
2022/08/31 08:49:26;;;;;;;8.35;5.10;;;17.00;99.90;;;;;;5047862;28;20021;-69
2022/08/31 08:51:58;;;;;;;6.32;5.00;;;17.00;99.90;;;;;;5049865;28;20029;-70
2022/08/31 08:54:38;;;;;;;6.50;5.20;;;17.10;99.90;;;;;;5054799;28;20063;-69
2022/08/31 08:57:14;;;;;;;8.82;5.57;;;17.10;99.90;;;;;;5056133;28;20466;-69
2022/08/31 08:59:44;;;;;;;11.00;5.63;;;17.10;99.90;;;;;;5046298;28;20279;-69
2022/08/31 09:02:40;;;;;;;8.87;6.10;;;17.20;99.90;;;;;;5056157;28;20481;-69
2022/08/31 09:05:18;;;;;;;5.97;5.20;;;17.20;99.90;;;;;;5053084;28;20481;-68
2022/08/31 09:07:49;;;;;;;6.97;4.68;;;17.30;99.90;;;;;;5056252;28;20420;-69
2022/08/31 09:10:44;;;;;;;7.60;5.60;;;17.30;99.90;;;;;;5055137;28;20108;-70
2022/08/31 09:13:35;;;;;;;8.10;6.18;;;17.40;99.90;;;;;;5054834;28;20041;-70
2022/08/31 09:16:03;;;;;;;7.10;5.43;;;17.40;99.90;;;;;;5054703;28;20032;-68
2022/08/31 09:18:59;;;;;;;6.78;5.38;;;17.40;99.90;;;;;;5055485;28;20111;-69
2022/08/31 09:21:29;;;;;;;6.63;5.30;;;17.50;99.90;;;;;;5054021;28;20021;-70
2022/08/31 09:24:11;;;;;;;11.53;6.20;;;17.50;99.90;;;;;;5054576;28;20025;-70
2022/08/31 09:27:08;;;;;;;7.38;5.80;;;17.60;99.90;;;;;;5050611;28;20021;-69
2022/08/31 09:29:43;;;;;;;7.95;6.43;;;17.60;99.90;;;;;;5053296;28;20111;-70
2022/08/31 09:32:15;;;;;;;7.18;5.97;;;17.60;99.90;;;;;;5055382;28;20029;-69
2022/08/31 09:34:41;;;;;;;7.50;6.30;;;17.60;99.90;;;;;;5055186;28;20036;-69
2022/08/31 09:37:20;;;;;;;8.48;7.00;;;17.60;99.90;;;;;;5055791;28;20044;-69
2022/08/31 09:39:49;;;;;;;8.90;6.10;;;17.60;99.90;;;;;;5055273;28;20029;-69
2022/08/31 09:42:27;;;;;;;9.98;6.40;;;17.60;99.90;;;;;;5055702;28;20017;-69
2022/08/31 09:44:57;;;;;;;7.78;6.30;;;17.70;99.90;;;;;;5055072;28;20021;-70
2022/08/31 09:47:54;;;;;;;8.40;6.65;;;17.80;99.90;;;;;;5049865;28;20025;-69
2022/08/31 09:50:34;;;;;;;8.02;5.20;;;17.80;99.90;;;;;;5054636;28;20397;-69
2022/08/31 09:56:14;;;;;;;7.70;5.47;;;17.90;99.90;;;;;;5051322;28;20385;-70
2022/08/31 09:58:55;;;;;;;7.68;6.00;;;17.80;99.90;;;;;;5049547;28;20113;-69
2022/08/31 10:01:43;;;;;;;61.83;7.13;;;17.90;99.90;;;;;;5054287;28;20040;-70
2022/08/31 10:04:22;;;;;;;7.95;5.40;;;17.90;99.90;;;;;;5054259;28;20021;-69
2022/08/31 10:06:56;;;;;;;7.20;5.30;;;17.80;99.90;;;;;;5053735;28;20021;-69
2022/08/31 10:09:34;;;;;;;6.07;4.82;;;17.80;99.90;;;;;;5054685;28;20048;-70
2022/08/31 10:12:07;;;;;;;6.57;5.15;;;17.80;99.90;;;;;;5054311;28;20033;-70
2022/08/31 10:14:42;;;;;;;6.95;5.43;;;17.90;99.90;;;;;;5049854;28;20584;-70
2022/08/31 10:17:25;;;;;;;8.13;5.47;;;17.80;99.90;;;;;;5055120;28;20499;-70
2022/08/31 10:20:09;;;;;;;7.88;5.50;;;17.90;99.90;;;;;;5054849;28;20064;-70
2022/08/31 10:22:40;;;;;;;6.38;4.93;;;17.90;99.90;;;;;;5055042;28;20023;-70
2022/08/31 10:25:16;;;;;;;7.90;5.50;;;17.90;99.90;;;;;;5055015;28;20519;-70
2022/08/31 10:27:49;;;;;;;6.22;5.30;;;17.90;99.90;;;;;;5054629;28;20016;-70
2022/08/31 10:30:23;;;;;;;8.15;6.03;;;17.90;99.90;;;;;;5054904;28;20071;-70
2022/08/31 10:33:14;;;;;;;6.93;5.30;;;17.90;99.90;;;;;;5053571;28;20028;-70
2022/08/31 10:35:50;;;;;;;6.25;5.10;;;18.00;99.90;;;;;;5053943;28;20102;-70
2022/08/31 10:38:29;;;;;;;6.13;5.00;;;18.10;99.90;;;;;;5054468;28;20060;-71
2022/08/31 10:41:22;;;;;;;8.35;4.88;;;18.10;99.90;;;;;;5054759;28;20416;-70
2022/08/31 10:44:15;;;;;;;6.68;5.13;;;18.20;99.90;;;;;;5054564;28;20039;-70
2022/08/31 10:46:42;;;;;;;6.88;5.53;;;18.20;99.90;;;;;;5053685;28;20033;-70
2022/08/31 10:49:07;;;;;;;5.28;4.25;;;18.20;99.90;;;;;;5053446;28;20083;-71
2022/08/31 10:52:10;;;;;;;7.13;4.85;;;18.30;99.90;;;;;;5054582;28;20033;-71
2022/08/31 10:54:54;;;;;;;7.20;4.93;;;18.40;99.90;;;;;;5053355;28;20087;-70
2022/08/31 10:57:38;;;;;;;6.90;4.63;;;18.30;99.90;;;;;;5054559;28;20095;-70
2022/08/31 11:00:40;;;;;;;7.00;5.13;;;18.40;99.90;;;;;;5054607;28;20060;-71
2022/08/31 11:03:38;;;;;;;6.80;5.38;;;18.40;99.90;;;;;;5054156;28;20036;-70
2022/08/31 11:06:35;;;;;;;8.63;4.97;;;18.40;99.90;;;;;;5054271;28;20084;-71
2022/08/31 11:09:14;;;;;;;7.07;4.75;;;18.50;99.90;;;;;;5053536;28;20119;-70
2022/08/31 11:12:03;;;;;;;7.07;4.72;;;18.50;99.90;;;;;;5052937;28;20021;-71
2022/08/31 11:14:48;;;;;;;6.13;4.63;;;18.50;99.90;;;;;;5054058;28;20504;-72
2022/08/31 11:17:46;;;;;;;6.05;4.45;;;18.50;99.90;;;;;;5053784;28;20108;-71
2022/08/31 11:20:43;;;;;;;5.70;4.25;;;18.50;99.90;;;;;;5054250;28;20051;-71
2022/08/31 11:23:11;;;;;;;5.75;4.15;;;18.60;99.90;;;;;;5045100;28;20018;-71
2022/08/31 11:26:05;;;;;;;5.43;4.20;;;18.60;99.90;;;;;;5042433;28;20021;-70
2022/08/31 11:28:52;;;;;;;6.60;4.47;;;18.70;99.90;;;;;;5043353;28;20029;-71
2022/08/31 11:31:23;;;;;;;6.63;4.90;;;18.80;99.90;;;;;;5040449;28;20112;-70
2022/08/31 11:33:55;;;;;;;5.43;4.43;;;18.80;99.90;;;;;;5054046;28;20021;-71
2022/08/31 11:36:56;;;;;;;5.20;4.63;;;18.90;99.90;;;;;;5048292;28;20405;-71
2022/08/31 11:39:34;;;;;;;4.53;4.03;;;18.90;99.90;;;;;;5042364;28;20024;-70
2022/08/31 11:42:07;;;;;;;5.47;4.57;;;18.90;99.90;;;;;;5038931;28;20306;-71
2022/08/31 11:44:38;;;;;;;5.90;4.43;;;18.90;99.90;;;;;;5047942;28;20381;-71
2022/08/31 11:47:23;;;;;;;5.03;4.30;;;18.90;99.90;;;;;;5043583;28;20155;-70
2022/08/31 11:49:54;;;;;;;6.38;4.70;;;18.90;99.90;;;;;;5050872;28;20105;-71
2022/08/31 11:52:21;;;;;;;6.90;4.55;;;19.00;99.90;;;;;;5044945;28;20374;-72
2022/08/31 11:54:49;;;;;;;7.65;5.00;;;19.00;99.90;;;;;;5048376;28;20023;-71
2022/08/31 11:57:22;;;;;;;5.22;4.25;;;19.00;99.90;;;;;;5051829;28;20052;-71
2022/08/31 11:59:50;;;;;;;4.60;3.63;;;19.10;99.90;;;;;;5044391;28;20025;-71
2022/08/31 12:02:19;;;;;;;5.53;4.00;;;19.10;99.90;;;;;;5039153;28;20108;-71
2022/08/31 12:04:46;;;;;;;5.80;3.88;;;19.20;99.90;;;;;;5039307;28;20021;-71
2022/08/31 12:07:28;;;;;;;5.82;4.20;;;19.20;99.90;;;;;;5038317;28;20104;-70
2022/08/31 12:10:24;;;;;;;5.97;3.97;;;19.20;99.90;;;;;;5044726;28;20027;-70
2022/08/31 12:13:17;;;;;;;5.15;3.78;;;19.10;99.90;;;;;;5039409;28;20040;-70
2022/08/31 12:16:05;;;;;;;5.07;4.20;;;19.10;99.90;;;;;;5046326;28;20548;-69
2022/08/31 12:18:47;;;;;;;5.13;3.90;;;19.10;99.90;;;;;;5039196;28;20370;-71
2022/08/31 12:24:41;;;;;;;6.28;3.50;;;19.00;99.90;;;;;;5040352;28;20116;-70
2022/08/31 12:27:23;;;;;;;5.57;3.65;;;18.90;99.90;;;;;;5050973;28;20021;-71
2022/08/31 12:29:48;;;;;;;4.78;3.50;;;18.80;99.90;;;;;;5045790;28;20118;-71
2022/08/31 12:32:36;;;;;;;3.90;3.10;;;18.70;99.90;;;;;;5046739;28;20104;-71
2022/08/31 12:35:08;;;;;;;4.22;2.85;;;18.60;99.90;;;;;;5047513;28;20473;-71
2022/08/31 12:37:36;;;;;;;3.67;2.42;;;18.50;99.90;;;;;;5050155;28;20029;-72
2022/08/31 12:40:21;;;;;;;3.00;2.22;;;18.40;99.90;;;;;;5046525;28;20110;-71
2022/08/31 12:43:02;;;;;;;3.80;2.40;;;18.30;99.90;;;;;;5068981;28;20032;-70
2022/08/31 12:45:46;;;;;;;;;;;18.20;99.90;;;;;;5043377;28;20070;-71
2022/08/31 12:48:32;;;;;;;3.20;2.58;;;18.20;99.90;;;;;;5049167;28;19916;-71
2022/08/31 12:51:33;;;;;;;4.22;2.55;;;18.20;99.90;;;;;;5049363;28;20047;-72
2022/08/31 12:54:01;;;;;;;3.03;2.40;;;18.20;99.90;;;;;;5045275;28;20087;-71
2022/08/31 12:56:57;;;;;;;2.85;1.90;;;18.20;99.90;;;;;;5048477;28;20100;-71
2022/08/31 12:59:39;;;;;;;3.00;2.10;;;18.30;99.90;;;;;;5049479;28;20112;-70
2022/08/31 13:02:10;;;;;;;2.90;1.98;;;18.30;99.90;;;;;;5050111;28;20100;-69
2022/08/31 13:04:40;;;;;;;3.10;1.90;;;18.40;99.90;;;;;;5056906;28;20107;-68
2022/08/31 13:07:13;;;;;;;3.35;2.35;;;18.40;99.90;;;;;;5056401;28;20053;-69
2022/08/31 13:09:41;;;;;;;2.90;2.20;;;18.50;99.90;;;;;;5072169;28;20029;-69
2022/08/31 13:12:07;;;;;;;2.60;2.03;;;18.50;99.90;;;;;;5055204;28;20405;-68
2022/08/31 13:14:41;;;;;;;2.72;1.90;;;18.50;99.90;;;;;;5055198;28;20170;-68
2022/08/31 13:17:17;;;;;;;3.08;1.90;;;18.60;99.90;;;;;;5056820;28;20036;-68
2022/08/31 13:19:55;;;;;;;3.75;2.15;;;18.60;99.90;;;;;;5054960;28;20025;-69
2022/08/31 13:22:40;;;;;;;3.17;2.42;;;18.60;99.90;;;;;;5056322;28;20055;-69